Time;durP1;ratioP1;P1;durP2;ratioP2;P2;SDS_P1;SDS_P2;PMS_P1;PMS_P2;Temp;Humidity;BMP_temperature;BMP_pressure;BME280_temperature;BME280_humidity;BME280_pressure;Samples;Min_cycle;Max_cycle;Signal;HPM_P1;HPM_P2
2022/04/12 00:00:59;;;;;;;15.23;5.10;;;;;;;9.89;50.67;100900.28;5045991;28;20547;-78
2022/04/12 00:03:25;;;;;;;16.15;5.53;;;;;;;9.86;51.23;100887.91;5035033;28;20029;-78
2022/04/12 00:05:51;;;;;;;16.50;5.43;;;;;;;9.84;51.59;100884.50;5038510;28;20033;-77
2022/04/12 00:08:17;;;;;;;13.38;4.90;;;;;;;9.83;50.97;100882.75;5070406;28;20024;-77
2022/04/12 00:10:42;;;;;;;17.73;5.03;;;;;;;9.82;51.24;100878.34;5060724;28;20041;-77
2022/04/12 00:13:08;;;;;;;17.35;5.63;;;;;;;9.81;51.19;100879.34;5047942;28;20037;-77
2022/04/12 00:15:33;;;;;;;17.02;5.93;;;;;;;9.79;51.33;100879.44;5047811;28;20104;-77
2022/04/12 00:20:43;;;;;;;15.18;5.20;;;;;;;9.75;51.33;100871.69;5040304;28;20087;-78
2022/04/12 00:23:08;;;;;;;18.38;5.68;;;;;;;9.74;51.43;100880.72;5044344;28;20013;-78
2022/04/12 00:25:33;;;;;;;17.13;4.68;;;;;;;9.72;51.88;100872.78;5042261;28;20047;-78
2022/04/12 00:27:59;;;;;;;16.67;5.10;;;;;;;9.71;51.91;100870.22;5040976;28;20470;-78
2022/04/12 00:30:26;;;;;;;16.92;4.95;;;;;;;9.70;51.73;100874.69;5042020;28;20079;-78
2022/04/12 00:32:52;;;;;;;15.60;5.18;;;;;;;9.69;51.66;100866.75;5035160;28;20396;-78
2022/04/12 00:35:19;;;;;;;13.98;5.22;;;;;;;9.68;51.78;100876.63;5037609;28;20025;-78
2022/04/12 00:37:45;;;;;;;14.85;5.45;;;;;;;9.68;51.62;100876.63;5047082;28;20439;-77
2022/04/12 00:40:11;;;;;;;16.27;4.75;;;;;;;9.67;51.59;100864.19;5037586;28;20028;-77
2022/04/12 00:42:37;;;;;;;16.55;5.25;;;;;;;9.66;51.32;100873.19;5027075;28;20045;-77
2022/04/12 00:45:03;;;;;;;15.95;5.35;;;;;;;9.63;51.80;100878.78;5044282;28;20044;-77
2022/04/12 00:47:28;;;;;;;12.40;4.43;;;;;;;9.63;51.97;100878.78;5054190;28;20028;-77
2022/04/12 00:49:54;;;;;;;14.10;4.72;;;;;;;9.60;51.99;100862.88;5035042;28;20091;-77
2022/04/12 00:52:19;;;;;;;12.25;4.60;;;;;;;9.58;52.00;100867.50;5041583;28;20472;-77
2022/04/12 00:54:45;;;;;;;16.05;4.43;;;;;;;9.57;51.59;100872.00;5016199;28;20057;-77
2022/04/12 00:57:12;;;;;;;16.55;5.03;;;;;;;9.54;52.12;100874.88;5047815;28;20029;-77
2022/04/12 00:59:37;;;;;;;16.73;5.28;;;;;;;9.53;51.70;100875.00;5038138;28;20029;-77
2022/04/12 01:02:06;;;;;;;15.85;4.55;;;;;;;9.49;52.43;100879.72;5047467;28;20752;-77
2022/04/12 01:04:32;;;;;;;15.73;4.90;;;;;;;9.47;52.11;100872.75;5051960;28;20032;-77
2022/04/12 01:06:58;;;;;;;14.20;4.55;;;;;;;9.44;52.42;100872.00;5048492;28;20469;-77
2022/04/12 01:09:27;;;;;;;18.77;5.32;;;;;;;9.44;52.37;100865.75;5050213;28;20037;-77
2022/04/12 01:11:53;;;;;;;18.20;5.28;;;;;;;9.39;52.91;100855.34;5036718;28;20044;-77
2022/04/12 01:14:19;;;;;;;13.40;4.40;;;;;;;9.37;53.47;100862.66;5033890;28;20037;-77
2022/04/12 01:16:44;;;;;;;13.32;4.55;;;;;;;9.37;53.03;100861.78;5047790;28;20033;-77
2022/04/12 01:19:09;;;;;;;16.10;5.18;;;;;;;9.33;52.50;100861.13;5034835;28;20040;-77
2022/04/12 01:22:03;;;;;;;15.60;5.13;;;;;;;9.35;52.72;100864.56;5046411;28;20037;-77
2022/04/12 01:24:29;;;;;;;17.75;5.63;;;;;;;9.30;53.01;100860.47;5047979;28;20037;-77
2022/04/12 01:26:55;;;;;;;17.27;4.65;;;;;;;9.26;53.48;100870.56;5040694;28;20029;-77
2022/04/12 01:29:20;;;;;;;15.35;5.00;;;;;;;9.24;53.56;100867.97;5042126;28;20033;-77
2022/04/12 01:31:46;;;;;;;14.15;4.75;;;;;;;9.22;53.40;100864.56;5045237;28;20031;-77
2022/04/12 01:34:11;;;;;;;14.98;5.05;;;;;;;9.21;53.67;100864.63;5048961;28;20431;-77
2022/04/12 01:36:37;;;;;;;17.48;4.90;;;;;;;9.20;53.45;100858.41;5037635;28;20116;-77
2022/04/12 01:39:02;;;;;;;19.92;5.43;;;;;;;9.20;53.07;100862.94;5049722;28;20028;-77
2022/04/12 01:41:28;;;;;;;13.82;4.90;;;;;;;9.18;53.84;100854.13;5050561;28;20078;-77
2022/04/12 01:43:53;;;;;;;15.02;4.47;;;;;;;9.15;53.93;100857.00;5034852;28;20036;-77
2022/04/12 01:46:18;;;;;;;11.70;4.05;;;;;;;9.14;53.60;100860.66;5044911;28;20055;-77
2022/04/12 01:48:44;;;;;;;16.15;5.47;;;;;;;9.13;53.52;100858.94;5036549;28;20111;-77
2022/04/12 01:51:10;;;;;;;13.75;4.15;;;;;;;9.10;54.18;100851.97;5046902;28;20389;-77
2022/04/12 01:53:36;;;;;;;15.68;5.03;;;;;;;9.09;53.88;100844.88;5045188;28;20104;-77
2022/04/12 01:56:02;;;;;;;15.77;5.75;;;;;;;9.05;54.03;100846.06;5046047;28;20029;-77
2022/04/12 01:58:27;;;;;;;21.95;5.55;;;;;;;9.02;54.53;100847.13;5034492;28;20040;-77
2022/04/12 02:00:53;;;;;;;15.50;4.93;;;;;;;9.01;54.58;100842.72;5034970;28;20389;-77
2022/04/12 02:03:18;;;;;;;17.77;5.55;;;;;;;8.97;55.18;100843.03;5043313;28;20021;-77
2022/04/12 02:05:43;;;;;;;14.43;4.93;;;;;;;8.93;54.60;100847.72;5033611;28;20025;-77
2022/04/12 02:08:09;;;;;;;16.88;4.72;;;;;;;8.92;54.95;100851.38;5042388;28;20033;-77
2022/04/12 02:10:34;;;;;;;20.77;5.15;;;;;;;8.90;54.92;100848.81;5042903;28;20041;-77
2022/04/12 02:13:00;;;;;;;15.23;4.88;;;;;;;8.88;55.36;100853.38;5033454;28;20033;-77
2022/04/12 02:15:25;;;;;;;17.83;5.75;;;;;;;8.85;54.96;100852.75;5038762;28;20029;-77
2022/04/12 02:17:51;;;;;;;16.25;5.03;;;;;;;8.83;55.11;100846.59;5049650;28;20028;-77
2022/04/12 02:20:16;;;;;;;19.67;5.38;;;;;;;8.82;54.90;100845.75;5045457;28;20033;-77
2022/04/12 02:22:41;;;;;;;18.35;5.85;;;;;;;8.81;55.32;100838.66;5039689;28;20017;-77
2022/04/12 02:25:07;;;;;;;14.18;4.72;;;;;;;8.79;55.53;100839.75;5038537;28;20025;-77
2022/04/12 02:27:32;;;;;;;18.52;6.35;;;;;;;8.77;56.31;100847.00;5040961;28;20451;-77
2022/04/12 02:29:57;;;;;;;13.55;4.63;;;;;;;8.73;56.98;100841.00;5041927;28;20476;-77
2022/04/12 02:32:23;;;;;;;18.73;5.05;;;;;;;8.71;55.76;100832.19;5032094;28;20086;-77
2022/04/12 02:34:48;;;;;;;14.68;5.20;;;;;;;8.70;56.54;100835.84;5039928;28;20057;-77
2022/04/12 02:37:13;;;;;;;15.82;5.32;;;;;;;8.66;56.32;100837.88;5042686;28;20465;-77
2022/04/12 02:39:39;;;;;;;18.52;5.28;;;;;;;8.63;56.52;100834.53;5045796;28;20523;-77
2022/04/12 02:42:05;;;;;;;15.23;5.05;;;;;;;8.60;56.47;100830.22;5035357;28;20032;-77
2022/04/12 02:44:30;;;;;;;17.38;5.63;;;;;;;8.56;57.47;100828.72;5045619;28;20029;-77
2022/04/12 02:46:55;;;;;;;15.45;5.00;;;;;;;8.52;57.10;100825.38;5052204;28;20451;-77
2022/04/12 02:49:20;;;;;;;16.27;5.50;;;;;;;8.51;57.10;100812.09;5040143;28;20040;-77
2022/04/12 02:51:46;;;;;;;14.52;5.10;;;;;;;8.51;57.38;100820.13;5031313;28;20032;-77
2022/04/12 02:54:14;;;;;;;16.77;6.18;;;;;;;8.49;57.16;100816.66;5031780;28;20037;-77
2022/04/12 02:56:39;;;;;;;16.38;4.97;;;;;;;8.47;57.30;100819.44;5042699;28;20033;-77
2022/04/12 02:59:05;;;;;;;17.00;5.28;;;;;;;8.45;57.21;100815.16;5039313;28;20036;-77
2022/04/12 03:01:30;;;;;;;17.70;5.18;;;;;;;8.45;57.17;100820.50;5033054;28;20035;-77
2022/04/12 03:03:56;;;;;;;13.00;4.43;;;;;;;8.40;57.30;100813.63;5042546;28;20026;-77
2022/04/12 03:06:21;;;;;;;16.52;5.05;;;;;;;8.39;57.60;100811.03;5048433;28;20106;-76
2022/04/12 03:08:46;;;;;;;14.82;5.07;;;;;;;8.36;57.24;100805.84;5035356;28;20032;-77
2022/04/12 03:11:12;;;;;;;13.57;4.88;;;;;;;8.33;57.35;100796.22;5042405;28;20044;-77
2022/04/12 03:13:37;;;;;;;14.88;5.50;;;;;;;8.31;58.17;100783.88;5034551;28;20040;-77
2022/04/12 03:16:02;;;;;;;15.88;5.78;;;;;;;8.29;57.68;100793.84;5046030;28;20021;-77
2022/04/12 03:18:27;;;;;;;13.95;4.97;;;;;;;8.27;57.93;100798.44;5056438;28;20397;-77
2022/04/12 03:20:53;;;;;;;12.18;4.80;;;;;;;8.26;58.17;100792.22;5037615;28;20029;-77
2022/04/12 03:23:18;;;;;;;14.85;5.20;;;;;;;8.27;58.35;100790.41;5039498;28;20021;-77
2022/04/12 03:25:44;;;;;;;14.75;5.35;;;;;;;8.22;58.12;100780.00;5032650;28;20025;-77
2022/04/12 03:28:09;;;;;;;16.65;5.68;;;;;;;8.23;58.25;100779.88;5039847;28;20155;-77
2022/04/12 03:30:35;;;;;;;19.10;5.93;;;;;;;8.21;58.36;100772.91;5046225;28;20087;-77
2022/04/12 03:33:00;;;;;;;14.05;5.28;;;;;;;8.19;58.52;100774.84;5038057;28;20025;-77
2022/04/12 03:35:25;;;;;;;16.38;5.20;;;;;;;8.17;58.53;100782.09;5042133;28;20035;-77
2022/04/12 03:37:51;;;;;;;16.15;4.95;;;;;;;8.17;58.50;100796.34;5034532;28;20044;-77
2022/04/12 03:40:16;;;;;;;15.82;4.90;;;;;;;8.17;59.04;100796.34;5046232;28;20037;-77
2022/04/12 03:42:42;;;;;;;15.80;4.93;;;;;;;8.15;58.68;100790.22;5045930;28;20031;-77
2022/04/12 03:45:07;;;;;;;14.32;5.43;;;;;;;8.14;59.14;100790.31;5038760;28;20036;-77
2022/04/12 03:47:32;;;;;;;15.55;4.78;;;;;;;8.13;59.12;100788.63;5058293;28;20036;-77
2022/04/12 03:49:58;;;;;;;18.00;5.25;;;;;;;8.11;59.23;100774.47;5040958;28;20431;-77
2022/04/12 03:52:23;;;;;;;18.38;5.80;;;;;;;8.08;59.34;100767.47;5036753;28;20064;-77
2022/04/12 03:54:48;;;;;;;18.15;5.47;;;;;;;8.04;59.71;100764.16;5036875;28;20028;-77
2022/04/12 03:57:13;;;;;;;20.45;5.70;;;;;;;8.02;59.58;100766.09;5038959;28;20857;-77
2022/04/12 03:59:39;;;;;;;19.00;5.47;;;;;;;8.02;59.47;100765.19;5045907;28;20178;-77
2022/04/12 04:02:04;;;;;;;17.50;5.78;;;;;;;8.04;59.62;100771.34;5033282;28;20025;-77
2022/04/12 04:04:30;;;;;;;16.40;6.10;;;;;;;8.01;60.46;100767.03;5041091;28;20079;-77
2022/04/12 04:06:55;;;;;;;18.88;5.65;;;;;;;8.01;59.78;100772.38;5047533;28;20081;-77
2022/04/12 04:09:21;;;;;;;17.38;5.50;;;;;;;8.03;59.82;100766.94;5045077;28;20087;-77
2022/04/12 04:11:48;;;;;;;16.55;5.32;;;;;;;8.02;60.02;100766.09;5039633;28;20052;-77
2022/04/12 04:14:15;;;;;;;14.75;4.93;;;;;;;8.04;59.20;100766.81;5040239;28;20036;-77
2022/04/12 04:16:40;;;;;;;14.80;5.35;;;;;;;8.07;59.74;100770.25;5056197;28;20025;-77
2022/04/12 04:19:08;;;;;;;16.98;5.57;;;;;;;8.07;59.82;100770.25;5043993;28;20036;-77
2022/04/12 04:21:34;;;;;;;17.60;5.47;;;;;;;8.07;59.56;100760.44;5050636;28;20396;-77
2022/04/12 04:23:59;;;;;;;16.77;5.78;;;;;;;8.09;59.75;100760.31;5046782;28;20022;-77
2022/04/12 04:26:25;;;;;;;14.90;4.65;;;;;;;8.07;59.62;100764.91;5031132;28;20044;-77
2022/04/12 04:28:51;;;;;;;16.73;5.57;;;;;;;8.07;60.00;100760.44;5036792;28;20037;-77
2022/04/12 04:31:16;;;;;;;20.88;5.93;;;;;;;8.08;59.87;100763.94;5044019;28;20118;-77
2022/04/12 04:33:41;;;;;;;20.80;6.20;;;;;;;8.06;60.47;100777.44;5055247;28;20048;-78
2022/04/12 04:36:07;;;;;;;16.45;5.80;;;;;;;8.07;59.95;100775.59;5056865;28;20040;-77
2022/04/12 04:38:32;;;;;;;18.90;6.05;;;;;;;8.05;60.02;100771.22;5040624;28;20022;-77
2022/04/12 04:40:58;;;;;;;16.92;6.00;;;;;;;8.02;60.16;100774.09;5029540;28;20048;-77
2022/04/12 04:43:23;;;;;;;16.67;5.80;;;;;;;8.02;60.03;100789.28;5042500;28;20025;-77
2022/04/12 04:45:49;;;;;;;18.05;6.18;;;;;;;8.02;59.52;100792.84;5040676;28;20021;-77
2022/04/12 04:48:14;;;;;;;15.75;5.38;;;;;;;8.02;60.50;100808.03;5050360;28;20065;-77
2022/04/12 04:50:40;;;;;;;18.30;6.47;;;;;;;7.99;60.50;100811.75;5032850;28;20112;-77
2022/04/12 04:53:07;;;;;;;16.02;5.55;;;;;;;7.96;61.41;100824.47;5037303;28;20028;-77
2022/04/12 04:55:35;;;;;;;18.25;5.78;;;;;;;7.95;61.39;100818.28;5049610;28;20060;-77
2022/04/12 04:58:01;;;;;;;19.40;6.35;;;;;;;7.91;61.12;100824.78;5039674;28;20098;-77
2022/04/12 05:00:29;;;;;;;20.27;6.88;;;;;;;7.91;61.21;100824.78;5041231;28;20033;-77
2022/04/12 05:02:57;;;;;;;17.60;6.57;;;;;;;7.93;61.16;100813.97;5038483;28;20106;-77
2022/04/12 05:05:22;;;;;;;21.10;6.35;;;;;;;7.93;61.46;100806.78;5045597;28;20032;-76
2022/04/12 05:07:50;;;;;;;22.17;6.65;;;;;;;7.96;61.05;100803.06;5039880;28;20375;-76
2022/04/12 05:10:18;;;;;;;18.05;5.97;;;;;;;7.96;61.09;100790.53;5041138;28;20549;-76
2022/04/12 05:12:44;;;;;;;16.00;5.43;;;;;;;7.96;61.54;100787.84;5048177;28;20512;-76
2022/04/12 05:15:10;;;;;;;15.88;5.78;;;;;;;7.96;61.33;100795.88;5049460;28;20037;-76
2022/04/12 05:17:35;;;;;;;18.70;6.85;;;;;;;7.97;62.50;100800.28;5057523;28;20108;-77
2022/04/12 05:20:01;;;;;;;17.65;6.70;;;;;;;7.99;61.39;100793.00;5041090;28;20033;-77
2022/04/12 05:22:27;;;;;;;19.65;6.63;;;;;;;8.01;61.94;100799.16;5037718;28;20126;-76
2022/04/12 05:24:53;;;;;;;21.42;6.63;;;;;;;8.03;61.21;100794.53;5046703;28;20045;-76
2022/04/12 05:27:19;;;;;;;18.23;6.32;;;;;;;8.07;61.67;100794.34;5042788;28;20031;-77
2022/04/12 05:29:45;;;;;;;18.48;6.22;;;;;;;8.09;61.51;100787.94;5032620;28;20485;-77
2022/04/12 05:32:12;;;;;;;18.08;6.95;;;;;;;8.11;61.35;100787.84;5037942;28;20038;-77
2022/04/12 05:34:39;;;;;;;17.20;5.85;;;;;;;8.12;60.97;100782.38;5033388;28;20083;-76
2022/04/12 05:37:04;;;;;;;18.10;6.60;;;;;;;8.14;61.57;100790.31;5034975;28;20057;-76
2022/04/12 05:39:29;;;;;;;19.58;6.50;;;;;;;8.15;61.13;100792.91;5048609;28;20060;-76
2022/04/12 05:42:00;;;;;;;19.48;6.00;;;;;;;8.17;61.38;100793.69;5043702;28;20025;-76
2022/04/12 05:44:25;;;;;;;19.58;6.45;;;;;;;8.18;61.24;100790.00;5032429;28;20017;-77
2022/04/12 05:46:50;;;;;;;16.92;6.53;;;;;;;8.18;61.26;100787.34;5035362;28;20461;-77
2022/04/12 05:49:15;;;;;;;16.67;6.07;;;;;;;8.19;61.26;100797.09;5034672;28;20029;-76
2022/04/12 05:51:40;;;;;;;18.98;6.50;;;;;;;8.21;61.40;100797.88;5037823;28;20033;-75
2022/04/12 05:54:06;;;;;;;19.05;6.57;;;;;;;8.22;61.50;100799.56;5033731;28;20044;-75
2022/04/12 05:56:31;;;;;;;19.15;6.82;;;;;;;8.24;61.25;100802.16;5043555;28;20029;-76
2022/04/12 05:58:56;;;;;;;20.40;7.82;;;;;;;8.26;61.16;100800.25;5036726;28;20438;-78
2022/04/12 06:01:22;;;;;;;20.55;6.90;;;;;;;8.26;61.43;100796.69;5040093;28;20029;-76
2022/04/12 06:03:47;;;;;;;19.50;6.72;;;;;;;8.28;61.64;100801.00;5039921;28;20049;-77
2022/04/12 06:06:14;;;;;;;19.73;6.93;;;;;;;8.29;61.41;100802.72;5037537;28;20481;-77
2022/04/12 06:08:39;;;;;;;23.67;7.10;;;;;;;8.32;61.00;100799.00;5031969;28;20040;-78
2022/04/12 06:11:05;;;;;;;17.85;6.30;;;;;;;8.35;61.45;100794.28;5031145;28;20049;-76
2022/04/12 06:13:30;;;;;;;20.08;7.32;;;;;;;8.37;61.22;100792.38;5031220;28;20045;-75
2022/04/12 06:15:55;;;;;;;20.33;6.93;;;;;;;8.42;61.09;100792.09;5033088;28;20029;-75
2022/04/12 06:18:20;;;;;;;19.27;7.00;;;;;;;8.47;61.00;100795.34;5045214;28;20037;-76
2022/04/12 06:20:46;;;;;;;21.45;7.07;;;;;;;8.52;61.29;100795.91;5036654;28;20029;-75
2022/04/12 06:23:11;;;;;;;18.85;7.30;;;;;;;8.57;60.82;100799.13;5044116;28;20029;-78
2022/04/12 06:25:36;;;;;;;19.27;7.25;;;;;;;8.65;61.29;100805.81;5052537;28;20091;-76
2022/04/12 06:28:02;;;;;;;20.27;7.38;;;;;;;8.70;60.85;100799.19;5049829;28;20399;-76
2022/04/12 06:30:30;;;;;;;18.55;7.43;;;;;;;8.77;60.54;100804.13;5052294;28;20023;-75
2022/04/12 06:32:56;;;;;;;21.13;7.85;;;;;;;8.82;60.99;100807.38;5034643;28;20026;-76
2022/04/12 06:35:22;;;;;;;19.45;7.40;;;;;;;8.86;60.94;100809.75;5032812;28;20388;-77
2022/04/12 06:37:48;;;;;;;19.00;7.50;;;;;;;8.92;60.03;100805.81;5031726;28;20258;-77
2022/04/12 06:40:16;;;;;;;19.60;7.50;;;;;;;8.96;60.31;100807.31;5047210;28;20064;-77
2022/04/12 06:42:41;;;;;;;19.40;7.30;;;;;;;9.01;60.13;100807.84;5048786;28;20029;-77
2022/04/12 06:45:08;;;;;;;19.52;6.85;;;;;;;9.07;60.21;100812.78;5046764;28;20025;-76
2022/04/12 06:47:33;;;;;;;20.48;7.00;;;;;;;9.13;59.66;100799.97;5053262;28;20112;-76
2022/04/12 06:49:59;;;;;;;21.45;7.82;;;;;;;9.20;59.76;100795.91;5046558;28;20119;-76
2022/04/12 06:52:24;;;;;;;19.05;7.40;;;;;;;9.26;59.54;100784.75;5049717;28;20028;-76
2022/04/12 06:54:50;;;;;;;20.75;7.00;;;;;;;9.34;59.49;100792.25;5047711;28;20503;-77
2022/04/12 06:57:16;;;;;;;21.90;7.70;;;;;;;9.41;59.03;100797.09;5048887;28;20056;-77
2022/04/12 06:59:42;;;;;;;18.13;7.07;;;;;;;9.50;59.17;100803.63;5055592;28;20607;-77
2022/04/12 07:02:07;;;;;;;18.65;7.00;;;;;;;9.60;58.46;100793.13;5045891;28;20119;-77
2022/04/12 07:04:33;;;;;;;19.35;7.05;;;;;;;9.68;58.44;100790.75;5057217;28;20150;-77
2022/04/12 07:06:59;;;;;;;18.40;6.65;;;;;;;9.75;58.00;100792.06;5047358;28;20040;-76
2022/04/12 07:09:27;;;;;;;19.52;7.13;;;;;;;9.81;58.69;100785.41;5049929;28;20576;-77
2022/04/12 07:11:53;;;;;;;19.80;6.93;;;;;;;9.93;57.50;100780.97;5044802;28;20060;-77
2022/04/12 07:14:19;;;;;;;18.75;6.68;;;;;;;10.03;57.78;100781.16;5046352;28;20375;-77
2022/04/12 07:16:44;;;;;;;18.80;6.47;;;;;;;10.10;57.14;100785.97;5048878;28;20024;-77
2022/04/12 07:19:09;;;;;;;20.92;7.40;;;;;;;10.20;57.56;100790.69;5049154;28;20039;-77
2022/04/12 07:21:35;;;;;;;17.98;6.13;;;;;;;10.32;57.50;100795.13;5061381;28;20032;-77
2022/04/12 07:24:03;;;;;;;19.90;6.70;;;;;;;10.41;57.61;100786.47;5058154;28;20480;-77
2022/04/12 07:26:28;;;;;;;20.00;7.45;;;;;;;10.48;57.40;100778.78;5042941;28;20090;-77
2022/04/12 07:28:53;;;;;;;18.38;6.82;;;;;;;10.59;56.96;100791.44;5048568;28;20472;-77
2022/04/12 07:31:19;;;;;;;19.08;6.68;;;;;;;10.68;57.17;100787.22;5045454;28;20056;-77
2022/04/12 07:33:44;;;;;;;18.65;6.53;;;;;;;10.79;57.19;100787.25;5048243;28;20021;-77
2022/04/12 07:36:09;;;;;;;18.63;6.50;;;;;;;10.86;56.78;100787.66;5046420;28;20044;-77
2022/04/12 07:38:35;;;;;;;20.65;7.05;;;;;;;10.96;56.28;100784.13;5049515;28;20044;-77
2022/04/12 07:41:00;;;;;;;17.42;6.15;;;;;;;11.07;56.10;100788.72;5043604;28;20037;-77
2022/04/12 07:43:25;;;;;;;18.60;6.25;;;;;;;11.17;56.67;100781.66;5044428;28;20021;-78
2022/04/12 07:45:51;;;;;;;19.23;6.55;;;;;;;11.26;55.88;100784.59;5044975;28;20416;-77
2022/04/12 07:48:16;;;;;;;19.25;7.05;;;;;;;11.39;55.08;100788.06;5052924;28;20033;-77
2022/04/12 07:50:41;;;;;;;16.77;6.50;;;;;;;11.50;56.11;100793.44;5056263;28;20039;-77
2022/04/12 07:53:06;;;;;;;17.70;6.20;;;;;;;11.61;55.45;100783.69;5047558;28;20477;-77
2022/04/12 07:55:32;;;;;;;17.27;5.40;;;;;;;11.70;55.85;100791.03;5041918;28;20028;-77
2022/04/12 07:57:57;;;;;;;18.75;6.38;;;;;;;11.80;55.81;100785.75;5048625;28;20101;-77
2022/04/12 08:00:23;;;;;;;18.40;6.00;;;;;;;11.84;55.54;100784.56;5044743;28;20389;-77
2022/04/12 08:02:48;;;;;;;19.63;6.32;;;;;;;11.96;55.43;100788.13;5044477;28;20082;-77
2022/04/12 08:05:13;;;;;;;16.95;5.93;;;;;;;12.02;55.76;100793.88;5050051;28;20021;-76
2022/04/12 08:07:39;;;;;;;15.20;5.07;;;;;;;12.10;54.81;100793.25;5066634;28;20052;-77
2022/04/12 08:10:05;;;;;;;17.00;5.78;;;;;;;12.14;55.27;100797.44;5057897;28;20508;-77
2022/04/12 08:12:31;;;;;;;16.50;5.53;;;;;;;12.19;54.65;100792.50;5047214;28;20112;-76
2022/04/12 08:14:56;;;;;;;17.83;5.90;;;;;;;12.25;55.36;100785.78;5046552;28;20412;-76
2022/04/12 08:17:21;;;;;;;19.00;6.22;;;;;;;12.32;55.18;100794.22;5065941;28;20043;-76
2022/04/12 08:19:47;;;;;;;17.45;5.47;;;;;;;12.38;54.51;100793.72;5068419;28;20036;-79
2022/04/12 08:22:12;;;;;;;14.15;4.97;;;;;;;12.46;54.95;100796.66;5055798;28;20029;-74
2022/04/12 08:24:37;;;;;;;15.13;5.55;;;;;;;12.52;53.88;100795.28;5056191;28;20032;-79
2022/04/12 08:27:03;;;;;;;19.45;6.05;;;;;;;12.62;55.35;100795.38;5053494;28;20547;-78
2022/04/12 08:29:29;;;;;;;14.25;4.88;;;;;;;12.70;54.64;100792.91;5055562;28;20476;-78
2022/04/12 08:31:54;;;;;;;15.30;5.45;;;;;;;12.76;53.68;100803.16;5044609;28;20561;-78
2022/04/12 08:34:20;;;;;;;17.27;5.50;;;;;;;12.82;54.87;100801.81;5048955;28;20090;-78
2022/04/12 08:36:45;;;;;;;13.93;4.38;;;;;;;12.88;55.35;100804.81;5058404;28;20024;-78
2022/04/12 08:39:13;;;;;;;12.50;3.90;;;;;;;13.01;54.22;100791.16;5049785;28;20538;-78
2022/04/12 08:41:39;;;;;;;11.55;4.22;;;;;;;13.10;54.06;100784.13;5045537;28;20040;-78
2022/04/12 08:44:06;;;;;;;15.35;4.18;;;;;;;13.21;54.03;100775.16;5044986;28;20040;-78
2022/04/12 08:46:32;;;;;;;19.48;4.38;;;;;;;13.25;53.51;100772.03;5051980;28;20038;-79
2022/04/12 08:48:58;;;;;;;12.70;4.05;;;;;;;13.23;53.53;100768.59;5054138;28;20033;-79
2022/04/12 08:51:27;;;;;;;14.93;4.07;;;;;;;13.26;53.46;100768.34;5048821;28;20027;-78
2022/04/12 08:53:54;;;;;;;14.27;4.85;;;;;;;13.33;52.70;100762.44;5050140;28;20550;-78
2022/04/12 08:56:19;;;;;;;11.60;4.18;;;;;;;13.38;53.19;100754.81;5045927;28;20515;-78
2022/04/12 08:58:44;;;;;;;17.58;4.72;;;;;;;13.42;53.52;100756.25;5050547;28;20246;-78
2022/04/12 09:01:09;;;;;;;18.05;4.63;;;;;;;13.50;53.03;100760.97;5051607;28;20071;-78
2022/04/12 09:03:35;;;;;;;14.38;4.40;;;;;;;13.55;53.79;100772.25;5052030;28;20048;-79
2022/04/12 09:06:00;;;;;;;15.13;4.13;;;;;;;13.53;52.36;100764.28;5054358;28;20522;-78
2022/04/12 09:08:31;;;;;;;14.55;4.68;;;;;;;13.58;52.62;100771.97;5049908;28;20099;-78
2022/04/12 09:11:02;;;;;;;14.13;4.45;;;;;;;13.60;53.33;100762.75;5050012;28;20045;-79
2022/04/12 09:13:28;;;;;;;12.90;4.18;;;;;;;13.69;53.26;100750.28;5055488;28;20034;-79
2022/04/12 09:15:53;;;;;;;19.40;4.63;;;;;;;13.73;53.38;100745.47;5053355;28;20029;-78
2022/04/12 09:18:36;;;;;;;11.63;4.05;;;;;;;13.74;53.75;100729.13;5053572;28;20032;-78
2022/04/12 09:21:19;;;;;;;13.07;4.05;;;;;;;13.79;55.18;100732.28;5067746;28;20532;-79
2022/04/12 09:23:49;;;;;;;10.68;3.70;;;;;;;13.92;53.12;100725.78;5046053;28;20028;-80
2022/04/12 09:26:23;;;;;;;12.52;4.25;;;;;;;14.04;54.09;100723.81;5044822;28;20689;-79
2022/04/12 09:28:51;;;;;;;14.25;4.22;;;;;;;14.00;53.30;100723.25;5042634;28;20373;-79
2022/04/12 09:31:17;;;;;;;16.45;4.80;;;;;;;14.11;52.71;100716.88;5051877;28;20025;-80
2022/04/12 09:33:44;;;;;;;13.40;4.10;;;;;;;14.18;52.80;100714.47;5052050;28;20162;-79
2022/04/12 09:36:10;;;;;;;11.95;3.70;;;;;;;14.30;52.25;100714.19;5037053;28;20036;-79
2022/04/12 09:38:37;;;;;;;10.73;3.70;;;;;;;14.40;52.41;100718.78;5036498;28;20029;-78
2022/04/12 09:41:12;;;;;;;12.63;4.13;;;;;;;14.42;52.37;100722.16;5049978;28;20055;-79
2022/04/12 09:43:59;;;;;;;16.67;4.22;;;;;;;14.48;52.52;100729.72;5053273;28;20492;-79
2022/04/12 09:46:26;;;;;;;13.68;4.65;;;;;;;14.57;52.05;100731.59;5036329;28;20511;-79
2022/04/12 09:48:52;;;;;;;14.23;4.60;;;;;;;14.60;51.90;100731.31;5034268;28;20456;-79
2022/04/12 09:51:20;;;;;;;13.13;4.15;;;;;;;14.64;51.95;100730.06;5034445;28;20025;-79
2022/04/12 09:53:45;;;;;;;11.30;4.10;;;;;;;14.74;50.55;100729.19;5051919;28;20064;-79
2022/04/12 09:56:16;;;;;;;16.00;4.28;;;;;;;14.84;51.63;100733.59;5035213;28;20057;-79
2022/04/12 09:58:44;;;;;;;16.13;4.97;;;;;;;14.88;50.97;100728.78;5036698;28;20378;-79
2022/04/12 10:01:10;;;;;;;15.55;4.50;;;;;;;14.92;52.27;100727.50;5051161;28;20024;-79
2022/04/12 10:03:36;;;;;;;12.70;4.30;;;;;;;14.97;53.24;100721.66;5034003;28;20133;-79
2022/04/12 10:06:02;;;;;;;14.57;4.28;;;;;;;15.03;50.25;100719.19;5040721;28;20025;-78
2022/04/12 10:08:30;;;;;;;20.13;4.82;;;;;;;15.12;52.38;100716.63;5051579;28;20024;-79
2022/04/12 10:10:55;;;;;;;14.95;4.47;;;;;;;15.18;51.65;100699.78;5048270;28;20421;-79
2022/04/12 10:13:21;;;;;;;12.45;4.55;;;;;;;15.25;51.58;100700.91;5040062;28;20029;-78
2022/04/12 10:15:48;;;;;;;12.70;4.38;;;;;;;15.31;52.18;100694.91;5043990;28;20029;-79
2022/04/12 10:18:17;;;;;;;13.35;4.10;;;;;;;15.35;50.41;100698.19;5054319;28;20539;-79
2022/04/12 10:20:43;;;;;;;17.38;4.93;;;;;;;15.36;51.27;100689.91;5050170;28;20500;-79
2022/04/12 10:23:09;;;;;;;11.93;4.05;;;;;;;15.47;49.84;100686.16;5052426;28;20031;-79
2022/04/12 10:25:35;;;;;;;11.55;4.28;;;;;;;15.54;50.30;100686.44;5046325;28;20036;-79
2022/04/12 10:28:04;;;;;;;10.82;3.97;;;;;;;15.68;51.32;100683.25;5044811;28;20029;-78
2022/04/12 10:30:30;;;;;;;10.85;3.97;;;;;;;15.81;49.81;100688.34;5036880;28;20033;-78
2022/04/12 10:33:07;;;;;;;17.88;4.97;;;;;;;15.91;50.14;100680.16;5033079;28;20033;-78
2022/04/12 10:35:45;;;;;;;15.00;4.10;;;;;;;15.96;50.45;100679.69;5034015;28;20404;-78
2022/04/12 10:38:15;;;;;;;16.85;4.82;;;;;;;16.13;49.83;100672.59;5039569;28;20029;-78
2022/04/12 10:40:44;;;;;;;15.25;4.32;;;;;;;16.14;49.47;100675.16;5035824;28;20025;-78
2022/04/12 10:43:11;;;;;;;13.30;4.88;;;;;;;16.22;48.96;100677.09;5044544;28;20028;-79
2022/04/12 10:45:45;;;;;;;13.60;4.07;;;;;;;16.32;50.28;100674.31;5046501;28;20087;-80
2022/04/12 10:48:19;;;;;;;11.20;4.18;;;;;;;16.39;50.50;100678.97;5034507;28;20094;-79
2022/04/12 10:50:45;;;;;;;17.10;4.63;;;;;;;16.49;58.15;100678.88;5032185;28;20369;-75
2022/04/12 10:53:11;;;;;;;10.30;3.67;;;;;;;16.53;49.67;100671.28;5043967;28;20365;-77
2022/04/12 10:55:40;;;;;;;15.15;4.75;;;;;;;16.58;47.60;100669.81;5040136;28;20040;-77
2022/04/12 10:58:31;;;;;;;14.35;4.72;;;;;;;16.70;49.29;100662.28;5048823;28;20139;-77
2022/04/12 11:00:56;;;;;;;13.63;4.55;;;;;;;16.81;47.55;100666.63;5044498;28;20519;-77
2022/04/12 11:03:40;;;;;;;14.40;4.35;;;;;;;16.83;48.40;100667.31;5045403;28;20025;-77
2022/04/12 11:06:09;;;;;;;16.58;4.95;;;;;;;17.00;48.56;100672.88;5039783;28;20183;-77
2022/04/12 11:08:35;;;;;;;14.95;5.03;;;;;;;17.08;47.01;100670.22;5038153;28;20023;-77
2022/04/12 11:11:00;;;;;;;13.95;3.83;;;;;;;17.16;45.87;100673.00;5034646;28;20424;-77
2022/04/12 11:13:30;;;;;;;13.07;4.47;;;;;;;17.22;46.86;100676.91;5032661;28;20576;-77
2022/04/12 11:15:59;;;;;;;17.88;4.20;;;;;;;17.24;46.00;100683.91;5041108;28;20319;-76
2022/04/12 11:18:44;;;;;;;15.48;5.05;;;;;;;17.20;47.40;100679.78;5050638;28;20564;-76
2022/04/12 11:21:09;;;;;;;11.70;4.38;;;;;;;17.21;47.87;100661.66;5048829;28;20044;-76